TimePST,TemperatureF,Dew PointF,Humidity,Sea Level PressureIn,VisibilityMPH,Wind Direction,Wind SpeedMPH,Gust SpeedMPH,PrecipitationIn,Events,Conditions,WindDirDegrees,DateUTC
12:56 AM,23.0,18.0,81,30.31,10.0,Calm,Calm,-,N/A,,Clear,0,2014-01-18 08:56:00
1:56 AM,21.9,18.0,85,30.31,10.0,SSE,6.9,-,N/A,,Clear,160,2014-01-18 09:56:00
2:56 AM,21.9,18.0,85,30.31,10.0,South,3.5,-,N/A,,Clear,190,2014-01-18 10:56:00
3:56 AM,19.9,16.0,85,30.33,10.0,Calm,Calm,-,N/A,,Clear,0,2014-01-18 11:56:00
4:56 AM,21.0,17.1,85,30.33,10.0,Calm,Calm,-,N/A,,Clear,0,2014-01-18 12:56:00
5:56 AM,17.1,14.0,88,30.35,10.0,Calm,Calm,-,N/A,,Clear,0,2014-01-18 13:56:00
6:56 AM,19.0,15.1,85,30.36,10.0,Calm,Calm,-,N/A,,Clear,0,2014-01-18 14:56:00
7:56 AM,16.0,12.9,88,30.38,10.0,SE,3.5,-,N/A,,Clear,140,2014-01-18 15:56:00
8:56 AM,28.0,21.0,75,30.37,10.0,SE,3.5,-,N/A,,Clear,140,2014-01-18 16:56:00
9:56 AM,37.0,23.0,57,30.37,10.0,Calm,Calm,-,N/A,,Clear,0,2014-01-18 17:56:00
10:56 AM,41.0,24.1,51,30.35,10.0,ENE,3.5,-,N/A,,Clear,60,2014-01-18 18:56:00
11:56 AM,46.9,25.0,42,30.31,10.0,Variable,4.6,-,N/A,,Clear,0,2014-01-18 19:56:00
12:56 PM,52.0,25.0,35,30.26,10.0,East,4.6,-,N/A,,Clear,80,2014-01-18 20:56:00
1:56 PM,55.9,24.1,29,30.23,10.0,NNE,4.6,-,N/A,,Clear,30,2014-01-18 21:56:00
2:56 PM,57.0,25.0,29,30.22,10.0,NNE,3.5,-,N/A,,Clear,30,2014-01-18 22:56:00
3:56 PM,57.0,24.1,28,30.20,10.0,ESE,6.9,-,N/A,,Clear,120,2014-01-18 23:56:00
4:56 PM,46.0,27.0,47,30.22,10.0,NNW,10.4,-,N/A,,Clear,330,2014-01-19 00:56:00
5:56 PM,36.0,27.0,70,30.25,10.0,Calm,Calm,-,N/A,,Clear,0,2014-01-19 01:56:00
6:56 PM,32.0,26.1,79,30.25,10.0,South,3.5,-,N/A,,Clear,180,2014-01-19 02:56:00
7:56 PM,30.0,25.0,82,30.26,10.0,South,4.6,-,N/A,,Clear,180,2014-01-19 03:56:00
8:56 PM,26.1,21.9,84,30.23,10.0,Calm,Calm,-,N/A,,Clear,0,2014-01-19 04:56:00
9:56 PM,25.0,21.9,88,30.22,10.0,Calm,Calm,-,N/A,,Clear,0,2014-01-19 05:56:00
10:56 PM,28.9,24.1,82,30.21,10.0,North,6.9,-,N/A,,Clear,10,2014-01-19 06:56:00
11:56 PM,27.0,23.0,85,30.20,9.0,Calm,Calm,-,N/A,,Clear,0,2014-01-19 07:56:00